Beardstown, Illinois
Current Conditions -  °F | °C
As of 4:15 PM on Friday 24 Oct 2014 (Local Time) from KIJX Reporting Station
Clear Clear  
Wind Chill: 72°   Ceiling: Unl
Heat Index: 72°   Visibility: 10mi
Dew Point: 52°   Wind: 10mph
Humidity: 50%   Direction: 180°S
Pressure: 29.99"   Gusts: NA
Location:  40.02°N, 90.43°W
Report Text: KIJX 242115Z AUTO 18009KT 10SM CLR 22/11 A2999 RMK AO2 T02210111
Loading
Personal Weather Stations






























Interactive Weather Map
Tropical Storm Tracking
New forecast layout! Learn more

10-Day Weather Forecast

Advertisements
Track Severe Weather on mobile